Time;durP1;ratioP1;P1;durP2;ratioP2;P2;SDS_P1;SDS_P2;PMS_P1;PMS_P2;Temp;Humidity;BMP_temperature;BMP_pressure;BME280_temperature;BME280_humidity;BME280_pressure;Samples;Min_cycle;Max_cycle;Signal;HPM_P1;HPM_P2
2020/12/07 00:01:46;;;;;;;0.90;0.90;;;4.90;97.80;;;;;;5055918;28;20178;-72
2020/12/07 00:04:12;;;;;;;1.08;0.98;;;4.90;97.80;;;;;;5054907;28;20174;-72
2020/12/07 00:06:38;;;;;;;1.35;1.25;;;4.90;97.80;;;;;;5055757;28;20202;-72
2020/12/07 00:09:05;;;;;;;1.10;1.00;;;4.90;97.70;;;;;;5055719;28;20667;-72
2020/12/07 00:11:30;;;;;;;1.05;1.05;;;4.90;97.70;;;;;;5055868;28;20672;-72
2020/12/07 00:13:56;;;;;;;1.23;1.23;;;5.00;97.80;;;;;;5055837;28;20178;-72
2020/12/07 00:16:22;;;;;;;1.23;1.20;;;4.90;97.70;;;;;;5055468;28;20167;-72
2020/12/07 00:18:48;;;;;;;1.20;1.03;;;5.00;97.70;;;;;;5055664;28;20607;-72
2020/12/07 00:21:13;;;;;;;1.20;1.20;;;5.00;97.70;;;;;;5055800;28;20193;-72
2020/12/07 00:23:39;;;;;;;1.20;1.20;;;5.00;97.60;;;;;;5055395;28;20178;-72
2020/12/07 00:26:10;;;;;;;1.73;1.20;;;5.00;97.60;;;;;;5055413;28;20184;-71
2020/12/07 00:28:39;;;;;;;1.50;1.40;;;5.00;97.60;;;;;;5055344;28;20194;-72
2020/12/07 00:31:06;;;;;;;1.40;1.15;;;5.00;97.70;;;;;;5054011;28;20296;-71
2020/12/07 00:33:32;;;;;;;1.40;1.30;;;5.00;97.60;;;;;;5055326;28;20632;-71
2020/12/07 00:35:58;;;;;;;2.58;1.75;;;5.00;97.60;;;;;;5055123;28;20185;-71
2020/12/07 00:38:23;;;;;;;1.50;1.40;;;4.90;97.90;;;;;;5055467;28;20177;-71
2020/12/07 00:40:50;;;;;;;1.33;1.30;;;4.90;97.70;;;;;;5055191;28;20436;-71
2020/12/07 00:43:16;;;;;;;1.20;1.10;;;4.90;97.80;;;;;;5055223;28;20446;-71
2020/12/07 00:45:42;;;;;;;1.20;0.97;;;4.80;97.70;;;;;;5055012;28;20721;-71
2020/12/07 00:48:07;;;;;;;1.20;1.10;;;4.70;97.80;;;;;;5055191;28;20456;-71
2020/12/07 00:50:33;;;;;;;1.70;1.10;;;4.60;97.90;;;;;;5055030;28;20227;-71
2020/12/07 00:52:59;;;;;;;1.10;0.90;;;4.40;98.20;;;;;;5054982;28;20305;-71
2020/12/07 00:55:24;;;;;;;0.70;0.60;;;4.50;98.30;;;;;;5054809;28;20174;-71
2020/12/07 00:57:50;;;;;;;0.83;0.83;;;4.40;98.30;;;;;;5053809;28;20174;-71
2020/12/07 01:00:15;;;;;;;1.47;1.37;;;4.20;98.70;;;;;;5054759;28;20281;-71
2020/12/07 01:02:41;;;;;;;1.93;1.30;;;4.20;98.90;;;;;;5054799;28;20252;-71
2020/12/07 01:05:07;;;;;;;0.90;0.90;;;4.30;98.90;;;;;;5054749;28;20228;-71
2020/12/07 01:07:32;;;;;;;1.20;1.10;;;4.40;98.90;;;;;;5053555;28;20174;-71
2020/12/07 01:09:58;;;;;;;2.13;1.03;;;4.30;98.80;;;;;;5054403;28;20198;-71
2020/12/07 01:12:23;;;;;;;1.10;1.10;;;4.40;98.90;;;;;;5054693;28;20249;-71
2020/12/07 01:14:51;;;;;;;1.03;0.93;;;4.50;98.90;;;;;;5054476;28;20162;-71
2020/12/07 01:17:19;;;;;;;1.00;1.00;;;4.60;98.80;;;;;;5054500;28;20526;-71
2020/12/07 01:19:46;;;;;;;0.95;0.95;;;4.60;98.70;;;;;;5054334;28;20206;-71
2020/12/07 01:22:12;;;;;;;1.15;1.05;;;4.60;98.50;;;;;;5054636;28;20227;-71
2020/12/07 01:24:37;;;;;;;0.80;0.80;;;4.60;98.60;;;;;;5054345;28;20580;-71
2020/12/07 01:27:04;;;;;;;1.70;1.03;;;4.60;98.60;;;;;;5054263;28;20910;-71
2020/12/07 01:29:29;;;;;;;1.30;1.25;;;4.60;98.60;;;;;;5054150;28;20205;-71
2020/12/07 01:31:55;;;;;;;1.53;1.40;;;4.60;98.50;;;;;;5054151;28;20205;-71
2020/12/07 01:34:22;;;;;;;0.80;0.80;;;4.60;98.40;;;;;;5054241;28;20166;-71
2020/12/07 01:36:47;;;;;;;0.80;0.80;;;4.70;98.40;;;;;;5054073;28;20574;-71
2020/12/07 01:39:13;;;;;;;1.13;1.13;;;4.70;98.30;;;;;;5054165;28;20227;-71
2020/12/07 01:41:39;;;;;;;0.90;0.90;;;4.70;98.30;;;;;;5054049;28;20166;-71
2020/12/07 01:44:05;;;;;;;0.82;0.82;;;4.70;98.30;;;;;;5054027;28;20200;-71
2020/12/07 01:46:31;;;;;;;1.00;1.00;;;4.60;98.20;;;;;;5053802;28;20249;-71
2020/12/07 01:48:57;;;;;;;1.63;1.52;;;4.80;98.30;;;;;;5053911;28;20452;-71
2020/12/07 01:51:23;;;;;;;0.97;0.97;;;4.80;98.20;;;;;;5052715;28;20178;-71
2020/12/07 01:53:50;;;;;;;1.00;1.00;;;4.80;98.20;;;;;;5054068;28;20405;-71
2020/12/07 01:56:29;;;;;;;1.17;1.15;;;4.70;98.10;;;;;;5053671;28;20176;-71
2020/12/07 01:58:59;;;;;;;1.23;1.23;;;4.80;98.10;;;;;;5053656;28;20193;-71
2020/12/07 02:01:26;;;;;;;1.25;1.25;;;4.70;98.00;;;;;;5053725;28;20250;-71
2020/12/07 02:03:53;;;;;;;1.73;1.63;;;4.70;98.00;;;;;;5053731;28;20166;-71
2020/12/07 02:06:18;;;;;;;2.03;1.92;;;4.50;98.00;;;;;;5053595;28;20225;-71
2020/12/07 02:08:50;;;;;;;1.20;1.20;;;4.50;98.20;;;;;;5053701;28;20335;-71
2020/12/07 02:11:17;;;;;;;1.00;1.00;;;4.50;98.40;;;;;;5054020;28;20167;-71
2020/12/07 02:13:43;;;;;;;0.80;0.70;;;4.40;98.30;;;;;;5053703;28;20177;-71
2020/12/07 02:16:09;;;;;;;0.70;0.70;;;4.40;98.50;;;;;;5053433;28;20170;-71
2020/12/07 02:18:34;;;;;;;1.30;1.30;;;4.30;98.60;;;;;;5053532;28;20407;-71
2020/12/07 02:21:00;;;;;;;0.90;0.90;;;4.30;98.70;;;;;;5053531;28;20188;-71
2020/12/07 02:23:25;;;;;;;1.00;1.00;;;4.30;98.80;;;;;;5053481;28;20186;-71
2020/12/07 02:25:51;;;;;;;1.03;1.03;;;4.30;98.80;;;;;;5053330;28;20253;-71
2020/12/07 02:28:17;;;;;;;1.30;1.20;;;4.40;98.70;;;;;;5052897;28;20170;-71
2020/12/07 02:30:42;;;;;;;0.60;0.60;;;4.50;98.70;;;;;;5053045;28;20231;-71
2020/12/07 02:33:08;;;;;;;0.73;0.73;;;4.50;98.50;;;;;;5053428;28;20712;-71
2020/12/07 02:35:34;;;;;;;0.57;0.57;;;4.50;98.40;;;;;;5053154;28;20173;-71
2020/12/07 02:37:59;;;;;;;0.80;0.70;;;4.50;98.50;;;;;;5053494;28;20162;-71
2020/12/07 02:40:25;;;;;;;0.70;0.70;;;4.50;98.40;;;;;;5053156;28;20200;-71
2020/12/07 02:42:51;;;;;;;0.67;0.67;;;4.60;98.40;;;;;;5053228;28;20231;-71
2020/12/07 02:45:17;;;;;;;0.90;0.60;;;4.60;98.30;;;;;;5053046;28;20174;-71
2020/12/07 02:47:43;;;;;;;0.82;0.82;;;4.50;98.20;;;;;;5053286;28;20210;-71
2020/12/07 02:50:11;;;;;;;1.23;1.23;;;4.50;98.20;;;;;;5052906;28;20201;-71
2020/12/07 02:52:37;;;;;;;0.80;0.80;;;4.50;98.30;;;;;;5053579;28;20215;-71
2020/12/07 02:55:05;;;;;;;1.27;0.90;;;4.50;98.30;;;;;;5053182;28;20182;-71
2020/12/07 02:57:31;;;;;;;0.95;0.95;;;4.50;98.30;;;;;;5051703;28;20219;-71
2020/12/07 02:59:57;;;;;;;0.50;0.50;;;4.50;98.20;;;;;;5053064;28;20277;-71
2020/12/07 03:02:22;;;;;;;0.80;0.80;;;4.40;98.50;;;;;;5051916;28;20178;-71
2020/12/07 03:04:48;;;;;;;0.80;0.80;;;4.40;98.30;;;;;;5053004;28;20253;-71
2020/12/07 03:07:14;;;;;;;0.77;0.73;;;4.30;98.40;;;;;;5052962;28;20198;-71
2020/12/07 03:09:40;;;;;;;1.20;1.10;;;4.30;98.40;;;;;;5053145;28;20211;-71
2020/12/07 03:12:06;;;;;;;0.70;0.70;;;4.30;98.40;;;;;;5051728;28;20546;-71
2020/12/07 03:14:32;;;;;;;10.38;1.85;;;4.20;98.40;;;;;;5052895;28;20177;-71
2020/12/07 03:16:58;;;;;;;0.90;0.90;;;4.10;98.70;;;;;;5052831;28;20171;-71
2020/12/07 03:19:24;;;;;;;1.42;1.10;;;3.90;99.00;;;;;;5052883;28;20670;-71
2020/12/07 03:21:49;;;;;;;0.87;0.87;;;3.90;99.10;;;;;;5053018;28;20184;-71
2020/12/07 03:24:15;;;;;;;1.20;1.10;;;3.80;99.30;;;;;;5052657;28;20248;-71
2020/12/07 03:26:41;;;;;;;0.80;0.80;;;3.80;99.30;;;;;;5052696;28;20165;-71
2020/12/07 03:29:07;;;;;;;0.95;0.95;;;3.80;99.40;;;;;;5052701;28;20190;-71
2020/12/07 03:31:35;;;;;;;0.80;0.80;;;3.90;99.50;;;;;;5052802;28;20203;-71
2020/12/07 03:34:02;;;;;;;0.68;0.68;;;4.00;99.50;;;;;;5052971;28;20165;-71
2020/12/07 03:36:28;;;;;;;0.88;0.88;;;4.00;99.20;;;;;;5052523;28;20171;-71
2020/12/07 03:38:54;;;;;;;0.70;0.70;;;4.10;99.20;;;;;;5053121;28;20275;-71
2020/12/07 03:41:20;;;;;;;0.82;0.82;;;4.00;99.20;;;;;;5056376;28;20876;-71
2020/12/07 03:43:46;;;;;;;0.90;0.90;;;4.10;99.10;;;;;;5056224;28;20261;-71
2020/12/07 03:46:12;;;;;;;0.60;0.60;;;4.10;99.00;;;;;;5056328;28;20761;-71
2020/12/07 03:48:38;;;;;;;1.10;1.10;;;4.10;98.80;;;;;;5056152;28;20179;-71
2020/12/07 03:51:04;;;;;;;1.20;1.20;;;4.10;98.80;;;;;;5056022;28;20450;-71
2020/12/07 03:53:36;;;;;;;0.60;0.60;;;4.00;98.80;;;;;;5054803;28;20651;-71
2020/12/07 03:56:02;;;;;;;0.70;0.70;;;4.10;98.90;;;;;;5055916;28;20186;-71
2020/12/07 03:58:28;;;;;;;0.80;0.80;;;4.10;98.80;;;;;;5056248;28;20557;-71
2020/12/07 04:00:55;;;;;;;0.80;0.80;;;4.10;98.80;;;;;;5055971;28;20194;-71
2020/12/07 04:03:21;;;;;;;0.70;0.70;;;4.10;98.80;;;;;;5055809;28;20171;-71
2020/12/07 04:05:54;;;;;;;0.57;0.57;;;4.10;98.80;;;;;;5055779;28;20173;-71
2020/12/07 04:08:20;;;;;;;0.55;0.55;;;4.10;98.80;;;;;;5055933;28;20192;-71
2020/12/07 04:10:45;;;;;;;0.80;0.73;;;4.10;98.60;;;;;;5055898;28;20289;-71
2020/12/07 04:13:11;;;;;;;0.60;0.60;;;4.10;98.80;;;;;;5055878;28;20180;-71
2020/12/07 04:15:37;;;;;;;1.00;1.00;;;4.10;98.80;;;;;;5055616;28;20168;-71
2020/12/07 04:18:03;;;;;;;0.50;0.50;;;4.20;98.60;;;;;;5055701;28;20170;-71
2020/12/07 04:20:28;;;;;;;0.67;0.67;;;4.10;98.40;;;;;;5055562;28;20190;-71
2020/12/07 04:22:54;;;;;;;0.70;0.70;;;4.20;98.50;;;;;;5055468;28;20666;-71
2020/12/07 04:25:21;;;;;;;0.60;0.60;;;4.20;98.30;;;;;;5055528;28;20177;-71
2020/12/07 04:27:46;;;;;;;0.70;0.40;;;4.30;98.40;;;;;;5055354;28;20162;-71
2020/12/07 04:30:12;;;;;;;0.90;0.90;;;4.30;98.30;;;;;;5055244;28;20259;-71
2020/12/07 04:32:37;;;;;;;0.73;0.73;;;4.40;98.20;;;;;;5055513;28;20173;-71
2020/12/07 04:35:03;;;;;;;0.97;0.97;;;4.40;98.00;;;;;;5055100;28;20169;-71
2020/12/07 04:37:29;;;;;;;0.93;0.90;;;4.30;98.00;;;;;;5055522;28;20170;-71
2020/12/07 04:39:55;;;;;;;1.00;1.00;;;4.40;98.10;;;;;;5055103;28;20431;-71
2020/12/07 04:42:21;;;;;;;0.90;0.90;;;4.40;98.10;;;;;;5055307;28;20645;-71
2020/12/07 04:44:47;;;;;;;1.00;1.00;;;4.40;98.10;;;;;;5055018;28;20572;-71
2020/12/07 04:47:16;;;;;;;0.80;0.80;;;4.40;98.00;;;;;;5055290;28;20204;-71
2020/12/07 04:49:43;;;;;;;0.70;0.70;;;4.30;98.00;;;;;;5054750;28;20237;-71
2020/12/07 04:52:09;;;;;;;0.60;0.50;;;4.30;98.10;;;;;;5054968;28;20175;-71
2020/12/07 04:54:43;;;;;;;0.70;0.70;;;4.30;98.10;;;;;;5054980;28;20170;-71
2020/12/07 04:57:09;;;;;;;1.52;1.08;;;4.20;98.20;;;;;;5053830;28;20185;-71
2020/12/07 04:59:39;;;;;;;1.10;1.00;;;4.10;98.30;;;;;;5054786;28;20292;-71
2020/12/07 05:02:05;;;;;;;3.45;2.95;;;4.20;98.50;;;;;;5054988;28;20244;-71
2020/12/07 05:04:31;;;;;;;2.60;2.37;;;4.20;98.50;;;;;;5054917;28;20170;-71
2020/12/07 05:07:04;;;;;;;6.68;3.20;;;4.20;98.50;;;;;;5054683;28;20580;-71
2020/12/07 05:09:31;;;;;;;2.70;2.50;;;4.10;98.20;;;;;;5054748;28;20763;-71
2020/12/07 05:11:59;;;;;;;3.10;2.80;;;4.10;98.30;;;;;;5053402;28;20673;-71
2020/12/07 05:14:25;;;;;;;2.25;1.88;;;4.00;98.30;;;;;;5054726;28;20170;-71
2020/12/07 05:16:51;;;;;;;6.13;3.00;;;3.80;98.40;;;;;;5054434;28;20701;-71
2020/12/07 05:19:21;;;;;;;8.97;5.27;;;3.60;98.90;;;;;;5054447;28;20678;-71
2020/12/07 05:21:47;;;;;;;29.65;13.80;;;3.60;99.20;;;;;;5054454;28;20289;-71
2020/12/07 05:24:12;;;;;;;20.17;11.43;;;3.50;99.30;;;;;;5054279;28;20190;-71
2020/12/07 05:26:39;;;;;;;11.43;8.80;;;3.60;99.30;;;;;;5054272;28;20177;-71
2020/12/07 05:29:08;;;;;;;3.42;2.72;;;3.60;99.30;;;;;;5053511;28;20205;-71
2020/12/07 05:31:34;;;;;;;1.75;1.65;;;3.60;99.20;;;;;;5054284;28;20643;-71
2020/12/07 05:34:00;;;;;;;1.70;1.47;;;3.60;99.20;;;;;;5054288;28;20188;-71
2020/12/07 05:36:26;;;;;;;1.48;1.13;;;3.60;99.20;;;;;;5054075;28;20411;-71
2020/12/07 05:38:52;;;;;;;1.23;1.23;;;3.60;99.00;;;;;;5054149;28;21209;-71
2020/12/07 05:41:23;;;;;;;1.50;1.40;;;3.50;99.00;;;;;;5053961;28;20189;-71
2020/12/07 05:43:53;;;;;;;3.70;3.50;;;3.50;99.30;;;;;;5054225;28;20201;-71
2020/12/07 05:46:24;;;;;;;1.80;1.65;;;3.50;99.30;;;;;;5053818;28;20192;-71
2020/12/07 05:48:52;;;;;;;1.83;1.73;;;3.60;99.40;;;;;;5053964;28;20169;-71
2020/12/07 05:51:23;;;;;;;1.35;1.25;;;3.70;99.20;;;;;;5053861;28;20236;-71
2020/12/07 05:53:49;;;;;;;1.40;1.30;;;3.80;99.20;;;;;;5053900;28;20249;-71
2020/12/07 05:56:16;;;;;;;6.30;1.70;;;3.70;98.90;;;;;;5053804;28;20201;-71
2020/12/07 05:59:04;;;;;;;2.88;2.20;;;3.90;98.90;;;;;;5053901;28;20405;-71
2020/12/07 06:01:30;;;;;;;3.13;2.35;;;4.00;98.60;;;;;;5053158;28;20181;-71
2020/12/07 06:03:57;;;;;;;3.67;2.60;;;4.00;98.30;;;;;;5052579;28;20636;-71
2020/12/07 06:06:31;;;;;;;2.33;2.13;;;4.10;98.30;;;;;;5053506;28;20201;-71
2020/12/07 06:09:03;;;;;;;2.33;1.50;;;4.00;98.20;;;;;;5053501;28;20186;-71
2020/12/07 06:11:34;;;;;;;2.03;1.77;;;4.10;98.50;;;;;;5053989;28;20174;-71
2020/12/07 06:14:03;;;;;;;2.63;2.42;;;4.00;98.50;;;;;;5053957;28;20161;-71
2020/12/07 06:16:36;;;;;;;2.25;2.13;;;4.00;98.50;;;;;;5053028;28;20174;-71
2020/12/07 06:19:12;;;;;;;3.00;2.72;;;4.00;98.50;;;;;;5053547;28;20182;-71
2020/12/07 06:21:44;;;;;;;2.75;2.47;;;4.00;98.60;;;;;;5053438;28;20174;-71
2020/12/07 06:24:09;;;;;;;3.65;3.30;;;4.10;98.70;;;;;;5052090;28;20652;-71
2020/12/07 06:26:35;;;;;;;2.37;2.17;;;4.20;98.70;;;;;;5053416;28;20196;-71
2020/12/07 06:29:03;;;;;;;2.67;2.47;;;4.20;98.40;;;;;;5053390;28;20197;-71
2020/12/07 06:31:29;;;;;;;3.55;2.53;;;4.30;98.00;;;;;;5053510;28;20166;-70
2020/12/07 06:33:55;;;;;;;2.53;2.33;;;4.40;97.70;;;;;;5053321;28;20172;-71
2020/12/07 06:36:33;;;;;;;3.13;2.83;;;4.40;97.60;;;;;;5053092;28;20165;-71
2020/12/07 06:39:17;;;;;;;3.25;2.75;;;4.30;97.40;;;;;;5053221;28;20215;-71
2020/12/07 06:41:45;;;;;;;3.53;3.05;;;4.40;97.50;;;;;;5053478;28;20173;-70
2020/12/07 06:44:21;;;;;;;4.43;4.00;;;4.10;97.70;;;;;;5053420;28;20205;-70
2020/12/07 06:47:05;;;;;;;3.63;2.85;;;4.00;98.00;;;;;;5053155;28;20176;-69
2020/12/07 06:52:16;;;;;;;5.68;4.15;;;3.90;98.30;;;;;;5053163;28;20160;-71
2020/12/07 06:55:08;;;;;;;4.88;3.90;;;3.90;98.30;;;;;;5053204;28;20206;-71
2020/12/07 06:57:42;;;;;;;4.07;3.22;;;4.00;98.20;;;;;;5053091;28;20170;-71
2020/12/07 07:00:14;;;;;;;5.60;4.13;;;4.00;98.20;;;;;;5053081;28;20240;-71
2020/12/07 07:02:45;;;;;;;4.15;3.75;;;3.90;98.10;;;;;;5053096;28;20168;-71
2020/12/07 07:05:12;;;;;;;3.83;3.40;;;3.70;98.20;;;;;;5052889;28;20210;-71
2020/12/07 07:07:39;;;;;;;5.20;3.83;;;3.60;98.50;;;;;;5053128;28;20662;-71
2020/12/07 07:10:07;;;;;;;6.30;5.03;;;3.60;99.00;;;;;;5052863;28;20207;-71
2020/12/07 07:12:33;;;;;;;5.20;3.75;;;3.70;99.10;;;;;;5053127;28;20193;-71
2020/12/07 07:14:59;;;;;;;4.03;3.55;;;3.80;98.80;;;;;;5056614;28;20185;-71
2020/12/07 07:17:30;;;;;;;5.03;3.40;;;3.90;98.70;;;;;;5056786;28;20174;-71
2020/12/07 07:19:57;;;;;;;3.35;3.05;;;3.90;98.40;;;;;;5056680;28;20192;-71
2020/12/07 07:22:23;;;;;;;4.25;3.33;;;3.90;98.30;;;;;;5056797;28;20177;-71
2020/12/07 07:24:55;;;;;;;4.03;3.50;;;3.90;98.40;;;;;;5056472;28;20182;-71
2020/12/07 07:30:05;;;;;;;3.05;2.42;;;4.00;98.10;;;;;;5056416;28;20721;-71
2020/12/07 07:32:32;;;;;;;2.63;2.42;;;4.00;98.20;;;;;;5056551;28;20557;-71
2020/12/07 07:34:59;;;;;;;5.07;2.92;;;4.00;98.00;;;;;;5056293;28;20315;-71
2020/12/07 07:37:24;;;;;;;2.95;2.63;;;4.00;98.00;;;;;;5056571;28;20555;-71
2020/12/07 07:40:02;;;;;;;4.30;3.90;;;4.00;98.00;;;;;;5056534;28;20199;-71
2020/12/07 07:42:29;;;;;;;4.80;2.90;;;4.10;98.00;;;;;;5056342;28;20835;-71
2020/12/07 07:44:56;;;;;;;4.88;2.35;;;4.10;97.90;;;;;;5056057;28;20176;-71
2020/12/07 07:47:29;;;;;;;5.35;3.42;;;4.00;98.20;;;;;;5056412;28;20170;-71
2020/12/07 08:17:14;;;;;;;4.22;3.42;;;4.70;97.10;;;;;;5055738;28;20200;-72
2020/12/07 08:19:40;;;;;;;2.70;2.30;;;4.90;96.90;;;;;;5055713;28;20652;-71
2020/12/07 08:22:16;;;;;;;3.47;3.08;;;4.90;96.40;;;;;;5055416;28;20220;-71
2020/12/07 08:25:04;;;;;;;2.65;2.45;;;5.00;96.10;;;;;;5054673;28;20190;-71
2020/12/07 08:27:34;;;;;;;4.10;2.75;;;5.20;95.90;;;;;;5055661;28;20644;-71
2020/12/07 08:30:01;;;;;;;3.10;2.80;;;5.20;95.70;;;;;;5055495;28;20260;-71
2020/12/07 08:32:26;;;;;;;2.97;2.35;;;5.30;95.60;;;;;;5055458;28;20178;-71
2020/12/07 08:34:52;;;;;;;4.67;3.30;;;5.30;95.60;;;;;;5055219;28;20209;-71
2020/12/07 08:37:18;;;;;;;1.90;1.80;;;5.30;96.00;;;;;;5055582;28;20522;-71
2020/12/07 08:39:44;;;;;;;1.92;1.70;;;5.20;95.40;;;;;;5055300;28;20224;-71
2020/12/07 08:42:10;;;;;;;2.00;1.80;;;5.00;95.50;;;;;;5055386;28;20174;-71
2020/12/07 08:44:37;;;;;;;1.97;1.83;;;4.60;96.30;;;;;;5055301;28;20174;-71
2020/12/07 08:47:06;;;;;;;1.58;1.48;;;4.50;96.60;;;;;;5054961;28;20173;-72
2020/12/07 08:49:32;;;;;;;1.30;1.20;;;4.60;96.60;;;;;;5054951;28;20213;-71
2020/12/07 08:51:58;;;;;;;1.57;1.40;;;4.40;96.20;;;;;;5055441;28;20166;-71
2020/12/07 08:54:23;;;;;;;1.30;1.30;;;4.40;96.40;;;;;;5055001;28;20405;-71
2020/12/07 08:56:49;;;;;;;1.83;1.73;;;4.30;96.40;;;;;;5054874;28;20208;-71
2020/12/07 08:59:15;;;;;;;5.80;2.10;;;4.40;96.80;;;;;;5055024;28;20769;-71
2020/12/07 09:01:41;;;;;;;1.10;1.10;;;4.20;97.10;;;;;;5055042;28;20190;-71
2020/12/07 09:04:10;;;;;;;1.30;1.20;;;4.20;96.50;;;;;;5054752;28;20206;-71
2020/12/07 09:06:37;;;;;;;1.20;1.10;;;4.30;96.60;;;;;;5054486;28;20166;-71
2020/12/07 09:09:02;;;;;;;1.40;1.30;;;4.40;96.70;;;;;;5054776;28;20541;-71
2020/12/07 09:11:28;;;;;;;1.70;1.20;;;4.60;96.70;;;;;;5054523;28;20217;-71
2020/12/07 09:13:53;;;;;;;2.27;2.10;;;4.70;96.30;;;;;;5054801;28;20227;-71
2020/12/07 09:16:20;;;;;;;2.07;1.87;;;4.80;95.90;;;;;;5054438;28;20574;-71
2020/12/07 09:18:46;;;;;;;2.28;2.00;;;4.90;95.80;;;;;;5054606;28;20169;-71
2020/12/07 09:21:12;;;;;;;1.93;1.67;;;5.10;95.70;;;;;;5054551;28;20253;-71
2020/12/07 09:23:38;;;;;;;1.30;1.20;;;5.20;95.40;;;;;;5054319;28;20440;-71
2020/12/07 09:26:05;;;;;;;2.50;2.33;;;5.10;95.30;;;;;;5054189;28;20647;-71
2020/12/07 09:28:31;;;;;;;1.77;1.60;;;5.20;95.40;;;;;;5054496;28;20178;-71
2020/12/07 09:30:57;;;;;;;2.10;1.95;;;5.10;95.30;;;;;;5052739;28;20687;-71
2020/12/07 09:33:24;;;;;;;3.72;3.42;;;4.80;95.40;;;;;;5054315;28;20204;-71
2020/12/07 09:35:49;;;;;;;3.60;3.30;;;4.80;95.80;;;;;;5053920;28;20166;-71
2020/12/07 09:38:15;;;;;;;5.00;3.10;;;4.70;95.90;;;;;;5053699;28;20631;-71
2020/12/07 09:40:41;;;;;;;2.87;2.67;;;4.50;96.30;;;;;;5054038;28;20225;-71
2020/12/07 09:43:06;;;;;;;3.50;2.23;;;4.40;96.50;;;;;;5053955;28;20193;-71
2020/12/07 09:45:32;;;;;;;4.63;3.00;;;4.40;96.60;;;;;;5053979;28;20244;-71
2020/12/07 09:47:59;;;;;;;3.60;2.60;;;4.50;96.50;;;;;;5052794;28;20173;-72
2020/12/07 09:50:25;;;;;;;2.70;1.90;;;4.60;96.30;;;;;;5053873;28;20235;-71
2020/12/07 09:52:51;;;;;;;4.40;3.22;;;4.60;96.10;;;;;;5053972;28;20167;-71
2020/12/07 09:55:17;;;;;;;4.00;3.63;;;4.70;96.10;;;;;;5053885;28;20190;-71
2020/12/07 09:57:42;;;;;;;3.47;2.77;;;4.70;96.30;;;;;;5054022;28;20166;-71
2020/12/07 10:00:08;;;;;;;3.73;3.33;;;4.60;96.30;;;;;;5053709;28;20515;-71
2020/12/07 10:02:35;;;;;;;3.63;2.80;;;4.60;96.40;;;;;;5053797;28;20170;-71
2020/12/07 10:05:01;;;;;;;4.63;2.80;;;4.50;96.40;;;;;;5053555;28;20199;-71
2020/12/07 10:07:27;;;;;;;3.03;2.83;;;4.50;96.50;;;;;;5053813;28;20256;-71
2020/12/07 10:09:52;;;;;;;3.47;2.63;;;4.70;96.30;;;;;;5053729;28;20452;-71
2020/12/07 10:12:18;;;;;;;3.90;2.60;;;4.70;95.90;;;;;;5053588;28;20572;-71
2020/12/07 10:14:44;;;;;;;2.50;2.30;;;4.70;95.50;;;;;;5053410;28;20563;-71
2020/12/07 10:17:09;;;;;;;3.33;3.03;;;4.70;95.80;;;;;;5053506;28;20534;-71
2020/12/07 10:19:35;;;;;;;4.43;2.50;;;4.80;96.10;;;;;;5053522;28;20612;-71
2020/12/07 10:22:07;;;;;;;2.80;2.50;;;4.60;96.40;;;;;;5053448;28;20166;-71
2020/12/07 10:24:33;;;;;;;3.55;3.30;;;4.80;96.60;;;;;;5053410;28;20244;-72
2020/12/07 10:26:59;;;;;;;2.90;2.53;;;5.10;95.90;;;;;;5053323;28;20170;-71
2020/12/07 10:29:25;;;;;;;4.30;3.25;;;5.10;95.80;;;;;;5053253;28;20198;-71
2020/12/07 10:31:50;;;;;;;2.80;2.60;;;5.20;95.60;;;;;;5053586;28;20268;-72
2020/12/07 10:34:16;;;;;;;3.53;2.57;;;5.40;95.40;;;;;;5053270;28;20466;-72
2020/12/07 10:36:48;;;;;;;3.00;2.57;;;5.60;95.50;;;;;;5053279;28;20170;-71
2020/12/07 10:39:14;;;;;;;3.85;3.28;;;5.90;94.70;;;;;;5053363;28;20684;-71
2020/12/07 10:41:40;;;;;;;6.30;3.00;;;6.10;94.10;;;;;;5053271;28;20727;-71
2020/12/07 10:44:05;;;;;;;2.83;2.50;;;6.20;93.60;;;;;;5052009;28;20181;-71
2020/12/07 10:46:31;;;;;;;2.73;2.53;;;6.20;93.60;;;;;;5053231;28;20964;-71
2020/12/07 10:48:57;;;;;;;2.57;2.33;;;6.20;93.30;;;;;;5055683;28;20212;-71
2020/12/07 10:51:22;;;;;;;2.40;1.97;;;6.40;93.30;;;;;;5057338;28;20201;-71
2020/12/07 10:53:48;;;;;;;2.40;2.20;;;6.60;92.90;;;;;;5057509;28;20166;-72
2020/12/07 10:56:15;;;;;;;2.10;2.00;;;6.80;92.50;;;;;;5057026;28;20175;-71
2020/12/07 10:58:43;;;;;;;2.22;2.13;;;7.30;92.30;;;;;;5057101;28;20166;-72
2020/12/07 11:01:10;;;;;;;3.92;2.20;;;7.90;91.60;;;;;;5057190;28;20179;-72
2020/12/07 11:03:36;;;;;;;3.53;2.25;;;8.40;90.60;;;;;;5057176;28;20722;-72
2020/12/07 11:06:12;;;;;;;1.70;1.60;;;8.50;88.70;;;;;;5057055;28;20255;-72
2020/12/07 11:08:47;;;;;;;2.20;2.10;;;8.40;87.60;;;;;;5056839;28;20405;-72
2020/12/07 11:11:13;;;;;;;2.42;2.22;;;8.10;88.30;;;;;;5057123;28;20194;-71
2020/12/07 11:13:39;;;;;;;2.30;2.10;;;7.90;89.60;;;;;;5057113;28;20177;-72
2020/12/07 11:16:05;;;;;;;3.10;1.87;;;7.90;90.00;;;;;;5056789;28;20430;-72
2020/12/07 11:18:33;;;;;;;2.50;2.30;;;8.00;90.00;;;;;;5056930;28;20206;-72
2020/12/07 11:21:00;;;;;;;1.73;1.63;;;8.10;90.00;;;;;;5056707;28;20457;-72
2020/12/07 11:23:26;;;;;;;2.78;1.98;;;8.30;90.00;;;;;;5056694;28;20188;-72
2020/12/07 11:25:51;;;;;;;1.70;1.55;;;8.40;88.50;;;;;;5056486;28;20524;-72
2020/12/07 11:28:17;;;;;;;2.10;1.90;;;8.30;88.20;;;;;;5055546;28;20250;-72
2020/12/07 11:30:43;;;;;;;7.90;4.80;;;8.50;86.90;;;;;;5056549;28;20198;-72
2020/12/07 11:33:08;;;;;;;7.23;5.77;;;8.50;86.40;;;;;;5056797;28;20685;-72
2020/12/07 11:35:34;;;;;;;2.07;1.93;;;8.70;86.90;;;;;;5056291;28;20220;-72
2020/12/07 11:38:06;;;;;;;2.30;2.10;;;8.70;85.00;;;;;;5056464;28;20203;-72
2020/12/07 11:45:42;;;;;;;2.83;2.30;;;8.30;86.10;;;;;;5056273;28;20171;-72
2020/12/07 11:48:09;;;;;;;2.13;1.50;;;8.10;86.60;;;;;;5054947;28;20664;-72
2020/12/07 11:50:34;;;;;;;3.22;2.42;;;7.80;87.90;;;;;;5056147;28;20214;-72
2020/12/07 11:53:00;;;;;;;2.30;2.10;;;7.50;89.60;;;;;;5056241;28;20171;-72
2020/12/07 11:55:26;;;;;;;3.53;2.50;;;7.40;90.50;;;;;;5055982;28;20159;-72
2020/12/07 11:57:51;;;;;;;2.17;2.07;;;7.60;89.80;;;;;;5056231;28;20172;-72
2020/12/07 12:00:17;;;;;;;2.90;2.07;;;7.80;87.50;;;;;;5054899;28;20639;-72
2020/12/07 12:02:42;;;;;;;1.87;1.77;;;7.90;87.40;;;;;;5055998;28;20174;-72
2020/12/07 12:05:08;;;;;;;2.90;2.07;;;7.90;87.30;;;;;;5055816;28;20180;-72
2020/12/07 12:07:33;;;;;;;1.20;1.10;;;8.10;88.10;;;;;;5055988;28;20180;-72
2020/12/07 12:09:59;;;;;;;6.87;2.00;;;8.20;87.70;;;;;;5055954;28;20728;-72
2020/12/07 12:12:26;;;;;;;2.60;1.90;;;8.20;86.70;;;;;;5056083;28;20534;-72
2020/12/07 12:14:51;;;;;;;1.50;1.40;;;8.10;86.60;;;;;;5055791;28;20405;-72
2020/12/07 12:17:17;;;;;;;1.73;1.57;;;8.00;87.20;;;;;;5055755;28;20651;-72
2020/12/07 12:19:42;;;;;;;1.70;1.60;;;8.00;86.50;;;;;;5055674;28;20199;-72
2020/12/07 12:22:08;;;;;;;3.63;1.60;;;7.70;86.70;;;;;;5055613;28;20679;-71
2020/12/07 12:24:34;;;;;;;2.03;1.90;;;7.40;87.90;;;;;;5055600;28;20565;-72
2020/12/07 12:26:59;;;;;;;1.40;1.30;;;7.30;88.40;;;;;;5055542;28;20171;-72
2020/12/07 12:29:25;;;;;;;2.43;1.83;;;7.00;88.60;;;;;;5055567;28;20193;-71
2020/12/07 12:31:50;;;;;;;2.93;1.60;;;6.90;88.80;;;;;;5055443;28;20640;-72
2020/12/07 12:34:16;;;;;;;1.77;1.53;;;6.70;90.00;;;;;;5055457;28;20201;-72
2020/12/07 12:36:43;;;;;;;2.00;1.90;;;6.80;90.40;;;;;;5055154;28;20654;-72
2020/12/07 12:39:10;;;;;;;2.78;1.45;;;6.80;90.20;;;;;;5055324;28;20182;-71
2020/12/07 12:41:35;;;;;;;2.38;1.95;;;6.70;90.00;;;;;;5055248;28;20594;-72
2020/12/07 12:44:07;;;;;;;1.67;1.57;;;6.70;90.30;;;;;;5055489;28;20202;-72
2020/12/07 12:46:33;;;;;;;2.30;2.10;;;6.40;90.10;;;;;;5055014;28;20173;-71
2020/12/07 12:48:59;;;;;;;4.27;1.93;;;6.20;90.70;;;;;;5055079;28;20190;-71
2020/12/07 12:51:24;;;;;;;2.40;1.60;;;6.20;91.20;;;;;;5055053;28;20463;-72
2020/12/07 12:53:50;;;;;;;1.90;1.80;;;6.20;91.50;;;;;;5055142;28;20171;-71
2020/12/07 12:56:16;;;;;;;1.80;1.70;;;6.10;91.60;;;;;;5054929;28;20260;-72
2020/12/07 12:58:41;;;;;;;2.30;1.90;;;5.90;91.70;;;;;;5055069;28;20253;-72
2020/12/07 13:01:07;;;;;;;1.53;1.33;;;5.70;91.90;;;;;;5054859;28;20178;-71
2020/12/07 13:03:33;;;;;;;1.90;1.50;;;5.90;91.80;;;;;;5055124;28;20171;-71
2020/12/07 13:05:59;;;;;;;2.42;2.03;;;6.00;92.00;;;;;;5054715;28;20542;-71
2020/12/07 13:08:25;;;;;;;6.47;3.07;;;6.30;91.80;;;;;;5054941;28;20202;-72
2020/12/07 13:10:51;;;;;;;1.60;1.50;;;6.40;91.70;;;;;;5054423;28;20939;-72
2020/12/07 13:13:17;;;;;;;1.53;1.43;;;6.50;91.80;;;;;;5054547;28;20405;-72
2020/12/07 13:16:02;;;;;;;1.10;1.00;;;6.60;92.30;;;;;;5054422;28;20216;-72
2020/12/07 13:18:33;;;;;;;2.50;1.48;;;6.70;92.20;;;;;;5054883;28;20170;-72
2020/12/07 13:24:12;;;;;;;1.60;1.48;;;6.70;91.40;;;;;;5072136;28;20197;-72
2020/12/07 13:29:22;;;;;;;2.80;1.55;;;6.60;91.00;;;;;;5060544;28;20251;-72
2020/12/07 13:31:47;;;;;;;2.67;1.73;;;6.70;91.90;;;;;;5054333;28;20566;-72
2020/12/07 13:34:13;;;;;;;1.93;1.67;;;6.60;92.10;;;;;;5054228;28;20659;-72
2020/12/07 13:36:42;;;;;;;1.43;1.17;;;6.60;92.10;;;;;;5054022;28;20209;-72
2020/12/07 13:39:08;;;;;;;1.65;1.40;;;6.60;92.50;;;;;;5054154;28;20534;-72
2020/12/07 13:41:34;;;;;;;1.77;1.60;;;6.60;92.80;;;;;;5054323;28;20174;-72